sensor_id;sensor_type;location;lat;lon;timestamp;P1;durP1;ratioP1;P2;durP2;ratioP2
52848;SDS011;38714;53.180;5.812;2024-03-06T00:01:35;9.85;;;5.25;;
52848;SDS011;38714;53.180;5.812;2024-03-06T00:04:02;7.78;;;5.00;;
52848;SDS011;38714;53.180;5.812;2024-03-06T00:06:29;6.78;;;4.72;;
52848;SDS011;38714;53.180;5.812;2024-03-06T00:08:55;9.48;;;5.90;;
52848;SDS011;38714;53.180;5.812;2024-03-06T00:11:21;7.43;;;5.68;;
52848;SDS011;38714;53.180;5.812;2024-03-06T00:13:46;5.63;;;4.30;;
52848;SDS011;38714;53.180;5.812;2024-03-06T00:16:13;8.93;;;3.70;;
52848;SDS011;38714;53.180;5.812;2024-03-06T00:18:38;5.88;;;4.38;;
52848;SDS011;38714;53.180;5.812;2024-03-06T00:21:05;7.85;;;6.00;;
52848;SDS011;38714;53.180;5.812;2024-03-06T00:23:31;9.23;;;4.70;;
52848;SDS011;38714;53.180;5.812;2024-03-06T00:25:57;10.20;;;5.50;;
52848;SDS011;38714;53.180;5.812;2024-03-06T00:28:23;8.15;;;5.07;;
52848;SDS011;38714;53.180;5.812;2024-03-06T00:30:49;6.80;;;4.50;;
52848;SDS011;38714;53.180;5.812;2024-03-06T00:33:14;9.00;;;4.25;;
52848;SDS011;38714;53.180;5.812;2024-03-06T00:35:40;11.25;;;5.60;;
52848;SDS011;38714;53.180;5.812;2024-03-06T00:38:05;10.07;;;4.18;;
52848;SDS011;38714;53.180;5.812;2024-03-06T00:40:31;11.07;;;4.78;;
52848;SDS011;38714;53.180;5.812;2024-03-06T00:42:57;7.72;;;4.93;;
52848;SDS011;38714;53.180;5.812;2024-03-06T00:45:23;7.40;;;4.35;;
52848;SDS011;38714;53.180;5.812;2024-03-06T00:47:49;7.53;;;3.47;;
52848;SDS011;38714;53.180;5.812;2024-03-06T00:50:15;3.53;;;3.22;;
52848;SDS011;38714;53.180;5.812;2024-03-06T00:52:44;7.43;;;3.50;;
52848;SDS011;38714;53.180;5.812;2024-03-06T00:55:10;6.25;;;3.10;;
52848;SDS011;38714;53.180;5.812;2024-03-06T00:57:36;4.15;;;3.53;;
52848;SDS011;38714;53.180;5.812;2024-03-06T01:00:04;8.77;;;3.63;;
52848;SDS011;38714;53.180;5.812;2024-03-06T01:02:39;14.48;;;4.13;;
52848;SDS011;38714;53.180;5.812;2024-03-06T01:05:05;6.32;;;4.13;;
52848;SDS011;38714;53.180;5.812;2024-03-06T01:07:34;6.45;;;3.75;;
52848;SDS011;38714;53.180;5.812;2024-03-06T01:10:04;4.95;;;3.28;;
52848;SDS011;38714;53.180;5.812;2024-03-06T01:12:33;9.88;;;3.50;;
52848;SDS011;38714;53.180;5.812;2024-03-06T01:14:59;5.68;;;4.95;;
52848;SDS011;38714;53.180;5.812;2024-03-06T01:17:25;4.20;;;3.63;;
52848;SDS011;38714;53.180;5.812;2024-03-06T01:19:50;8.20;;;4.35;;
52848;SDS011;38714;53.180;5.812;2024-03-06T01:22:16;4.30;;;3.50;;
52848;SDS011;38714;53.180;5.812;2024-03-06T01:24:42;9.93;;;4.15;;
52848;SDS011;38714;53.180;5.812;2024-03-06T01:27:08;6.13;;;3.35;;
52848;SDS011;38714;53.180;5.812;2024-03-06T01:29:34;5.10;;;4.15;;
52848;SDS011;38714;53.180;5.812;2024-03-06T01:32:00;6.65;;;4.38;;
52848;SDS011;38714;53.180;5.812;2024-03-06T01:34:26;5.78;;;2.70;;
52848;SDS011;38714;53.180;5.812;2024-03-06T01:36:52;7.22;;;3.85;;
52848;SDS011;38714;53.180;5.812;2024-03-06T01:39:18;5.70;;;4.18;;
52848;SDS011;38714;53.180;5.812;2024-03-06T01:41:47;6.25;;;4.43;;
52848;SDS011;38714;53.180;5.812;2024-03-06T01:44:14;8.65;;;5.18;;
52848;SDS011;38714;53.180;5.812;2024-03-06T01:46:40;5.97;;;3.22;;
52848;SDS011;38714;53.180;5.812;2024-03-06T01:49:06;6.47;;;3.83;;
52848;SDS011;38714;53.180;5.812;2024-03-06T01:51:33;7.15;;;3.42;;
52848;SDS011;38714;53.180;5.812;2024-03-06T01:54:00;4.28;;;3.22;;
52848;SDS011;38714;53.180;5.812;2024-03-06T01:56:29;4.10;;;3.30;;
52848;SDS011;38714;53.180;5.812;2024-03-06T01:58:56;6.95;;;3.25;;
52848;SDS011;38714;53.180;5.812;2024-03-06T02:01:23;5.57;;;4.15;;
52848;SDS011;38714;53.180;5.812;2024-03-06T02:03:49;4.93;;;3.92;;
52848;SDS011;38714;53.180;5.812;2024-03-06T02:06:16;5.80;;;3.97;;
52848;SDS011;38714;53.180;5.812;2024-03-06T02:08:45;5.78;;;3.65;;
52848;SDS011;38714;53.180;5.812;2024-03-06T02:11:11;6.07;;;4.53;;
52848;SDS011;38714;53.180;5.812;2024-03-06T02:13:38;11.93;;;3.72;;
52848;SDS011;38714;53.180;5.812;2024-03-06T02:16:04;6.03;;;4.55;;
52848;SDS011;38714;53.180;5.812;2024-03-06T02:18:30;5.75;;;3.13;;
52848;SDS011;38714;53.180;5.812;2024-03-06T02:20:56;7.47;;;3.50;;
52848;SDS011;38714;53.180;5.812;2024-03-06T02:23:22;5.95;;;3.72;;
52848;SDS011;38714;53.180;5.812;2024-03-06T02:25:48;5.18;;;2.75;;
52848;SDS011;38714;53.180;5.812;2024-03-06T02:28:15;8.68;;;3.67;;
52848;SDS011;38714;53.180;5.812;2024-03-06T02:30:42;5.65;;;4.57;;
52848;SDS011;38714;53.180;5.812;2024-03-06T02:33:08;7.60;;;3.67;;
52848;SDS011;38714;53.180;5.812;2024-03-06T02:35:34;6.25;;;3.67;;
52848;SDS011;38714;53.180;5.812;2024-03-06T02:38:01;7.30;;;4.82;;
52848;SDS011;38714;53.180;5.812;2024-03-06T02:40:29;6.63;;;3.42;;
52848;SDS011;38714;53.180;5.812;2024-03-06T02:42:56;4.28;;;3.33;;
52848;SDS011;38714;53.180;5.812;2024-03-06T02:45:21;4.57;;;3.33;;
52848;SDS011;38714;53.180;5.812;2024-03-06T02:47:47;4.70;;;3.30;;
52848;SDS011;38714;53.180;5.812;2024-03-06T02:50:13;5.32;;;4.72;;
52848;SDS011;38714;53.180;5.812;2024-03-06T02:52:39;3.78;;;3.47;;
52848;SDS011;38714;53.180;5.812;2024-03-06T02:55:05;4.40;;;2.45;;
52848;SDS011;38714;53.180;5.812;2024-03-06T02:57:31;4.30;;;3.85;;
52848;SDS011;38714;53.180;5.812;2024-03-06T02:59:57;4.45;;;3.00;;
52848;SDS011;38714;53.180;5.812;2024-03-06T03:02:23;8.98;;;3.95;;
52848;SDS011;38714;53.180;5.812;2024-03-06T03:04:52;9.40;;;3.63;;
52848;SDS011;38714;53.180;5.812;2024-03-06T03:07:18;7.82;;;4.30;;
52848;SDS011;38714;53.180;5.812;2024-03-06T03:09:46;4.85;;;3.80;;
52848;SDS011;38714;53.180;5.812;2024-03-06T03:12:12;8.70;;;4.47;;
52848;SDS011;38714;53.180;5.812;2024-03-06T03:14:39;6.22;;;3.28;;
52848;SDS011;38714;53.180;5.812;2024-03-06T03:17:05;5.18;;;2.85;;
52848;SDS011;38714;53.180;5.812;2024-03-06T03:19:31;4.18;;;3.33;;
52848;SDS011;38714;53.180;5.812;2024-03-06T03:21:57;5.50;;;3.47;;
52848;SDS011;38714;53.180;5.812;2024-03-06T03:24:23;6.15;;;3.85;;
52848;SDS011;38714;53.180;5.812;2024-03-06T03:26:51;4.45;;;3.15;;
52848;SDS011;38714;53.180;5.812;2024-03-06T03:29:17;9.45;;;4.63;;
52848;SDS011;38714;53.180;5.812;2024-03-06T03:31:42;6.13;;;2.97;;
52848;SDS011;38714;53.180;5.812;2024-03-06T03:34:08;5.30;;;3.95;;
52848;SDS011;38714;53.180;5.812;2024-03-06T03:36:34;4.53;;;3.42;;
52848;SDS011;38714;53.180;5.812;2024-03-06T03:38:59;5.15;;;4.45;;
52848;SDS011;38714;53.180;5.812;2024-03-06T03:41:25;11.10;;;3.75;;
52848;SDS011;38714;53.180;5.812;2024-03-06T03:43:51;4.63;;;3.88;;
52848;SDS011;38714;53.180;5.812;2024-03-06T03:46:16;8.88;;;4.18;;
52848;SDS011;38714;53.180;5.812;2024-03-06T03:48:42;5.32;;;3.65;;
52848;SDS011;38714;53.180;5.812;2024-03-06T03:51:08;6.00;;;3.47;;
52848;SDS011;38714;53.180;5.812;2024-03-06T03:53:33;6.82;;;3.90;;
52848;SDS011;38714;53.180;5.812;2024-03-06T03:56:00;3.58;;;3.15;;
52848;SDS011;38714;53.180;5.812;2024-03-06T03:58:25;3.30;;;3.00;;
52848;SDS011;38714;53.180;5.812;2024-03-06T04:00:51;5.00;;;4.50;;
52848;SDS011;38714;53.180;5.812;2024-03-06T04:03:20;5.68;;;3.75;;
52848;SDS011;38714;53.180;5.812;2024-03-06T04:05:49;6.30;;;3.63;;
52848;SDS011;38714;53.180;5.812;2024-03-06T04:08:15;6.47;;;3.15;;
52848;SDS011;38714;53.180;5.812;2024-03-06T04:10:44;7.45;;;5.43;;
52848;SDS011;38714;53.180;5.812;2024-03-06T04:13:10;6.63;;;4.95;;
52848;SDS011;38714;53.180;5.812;2024-03-06T04:15:37;6.88;;;3.55;;
52848;SDS011;38714;53.180;5.812;2024-03-06T04:18:02;5.20;;;3.75;;
52848;SDS011;38714;53.180;5.812;2024-03-06T04:20:28;6.90;;;3.90;;
52848;SDS011;38714;53.180;5.812;2024-03-06T04:22:54;6.78;;;3.22;;
52848;SDS011;38714;53.180;5.812;2024-03-06T04:25:19;5.65;;;3.58;;
52848;SDS011;38714;53.180;5.812;2024-03-06T04:27:45;6.18;;;3.13;;
52848;SDS011;38714;53.180;5.812;2024-03-06T04:30:10;6.30;;;4.20;;
52848;SDS011;38714;53.180;5.812;2024-03-06T04:32:36;4.78;;;3.22;;
52848;SDS011;38714;53.180;5.812;2024-03-06T04:35:02;8.77;;;4.70;;
52848;SDS011;38714;53.180;5.812;2024-03-06T04:37:28;5.75;;;3.55;;
52848;SDS011;38714;53.180;5.812;2024-03-06T04:39:54;5.53;;;3.17;;
52848;SDS011;38714;53.180;5.812;2024-03-06T04:42:20;8.63;;;3.95;;
52848;SDS011;38714;53.180;5.812;2024-03-06T04:44:45;7.65;;;4.40;;
52848;SDS011;38714;53.180;5.812;2024-03-06T04:47:11;7.53;;;4.68;;
52848;SDS011;38714;53.180;5.812;2024-03-06T04:49:37;4.97;;;3.03;;
52848;SDS011;38714;53.180;5.812;2024-03-06T04:52:02;7.07;;;3.47;;
52848;SDS011;38714;53.180;5.812;2024-03-06T04:54:28;7.22;;;4.03;;
52848;SDS011;38714;53.180;5.812;2024-03-06T04:56:54;5.80;;;3.67;;
52848;SDS011;38714;53.180;5.812;2024-03-06T04:59:20;9.45;;;4.60;;
52848;SDS011;38714;53.180;5.812;2024-03-06T05:01:46;6.40;;;3.72;;
52848;SDS011;38714;53.180;5.812;2024-03-06T05:04:12;4.72;;;4.20;;
52848;SDS011;38714;53.180;5.812;2024-03-06T05:06:37;6.75;;;4.28;;
52848;SDS011;38714;53.180;5.812;2024-03-06T05:09:03;4.13;;;3.42;;
52848;SDS011;38714;53.180;5.812;2024-03-06T05:11:29;9.02;;;4.43;;
52848;SDS011;38714;53.180;5.812;2024-03-06T05:13:57;6.25;;;3.58;;
52848;SDS011;38714;53.180;5.812;2024-03-06T05:16:26;8.82;;;3.58;;
52848;SDS011;38714;53.180;5.812;2024-03-06T05:18:52;6.22;;;3.95;;
52848;SDS011;38714;53.180;5.812;2024-03-06T05:21:18;4.75;;;3.88;;
52848;SDS011;38714;53.180;5.812;2024-03-06T05:23:44;5.25;;;3.78;;
52848;SDS011;38714;53.180;5.812;2024-03-06T05:26:10;6.63;;;4.15;;
52848;SDS011;38714;53.180;5.812;2024-03-06T05:28:35;6.13;;;3.70;;
52848;SDS011;38714;53.180;5.812;2024-03-06T05:31:13;5.47;;;4.20;;
52848;SDS011;38714;53.180;5.812;2024-03-06T05:36:10;3.15;;;2.75;;
52848;SDS011;38714;53.180;5.812;2024-03-06T05:38:38;5.85;;;3.75;;
52848;SDS011;38714;53.180;5.812;2024-03-06T05:41:03;8.27;;;4.25;;
52848;SDS011;38714;53.180;5.812;2024-03-06T05:43:29;11.52;;;5.10;;
52848;SDS011;38714;53.180;5.812;2024-03-06T05:45:55;6.22;;;3.80;;
52848;SDS011;38714;53.180;5.812;2024-03-06T05:48:20;5.43;;;3.83;;
52848;SDS011;38714;53.180;5.812;2024-03-06T05:50:46;6.60;;;4.47;;
52848;SDS011;38714;53.180;5.812;2024-03-06T05:53:11;9.98;;;6.28;;
52848;SDS011;38714;53.180;5.812;2024-03-06T05:55:37;8.52;;;3.92;;
52848;SDS011;38714;53.180;5.812;2024-03-06T05:58:03;10.30;;;4.53;;
52848;SDS011;38714;53.180;5.812;2024-03-06T06:00:30;4.10;;;3.13;;
52848;SDS011;38714;53.180;5.812;2024-03-06T06:02:56;6.55;;;5.05;;
52848;SDS011;38714;53.180;5.812;2024-03-06T06:05:21;6.15;;;3.90;;
52848;SDS011;38714;53.180;5.812;2024-03-06T06:07:48;5.65;;;3.85;;
52848;SDS011;38714;53.180;5.812;2024-03-06T06:10:14;5.25;;;4.50;;
52848;SDS011;38714;53.180;5.812;2024-03-06T06:12:39;5.25;;;3.65;;
52848;SDS011;38714;53.180;5.812;2024-03-06T06:15:06;7.03;;;4.45;;
52848;SDS011;38714;53.180;5.812;2024-03-06T06:17:33;8.45;;;5.18;;
52848;SDS011;38714;53.180;5.812;2024-03-06T06:19:59;7.45;;;4.00;;
52848;SDS011;38714;53.180;5.812;2024-03-06T06:22:27;6.15;;;4.40;;
52848;SDS011;38714;53.180;5.812;2024-03-06T06:24:52;7.38;;;4.10;;
52848;SDS011;38714;53.180;5.812;2024-03-06T06:27:20;8.13;;;4.70;;
52848;SDS011;38714;53.180;5.812;2024-03-06T06:29:45;8.23;;;4.07;;
52848;SDS011;38714;53.180;5.812;2024-03-06T06:32:11;8.85;;;5.25;;
52848;SDS011;38714;53.180;5.812;2024-03-06T06:34:36;9.30;;;4.95;;
52848;SDS011;38714;53.180;5.812;2024-03-06T06:37:02;8.00;;;4.35;;
52848;SDS011;38714;53.180;5.812;2024-03-06T06:39:28;5.57;;;4.38;;
52848;SDS011;38714;53.180;5.812;2024-03-06T06:41:53;9.02;;;4.82;;
52848;SDS011;38714;53.180;5.812;2024-03-06T06:44:19;11.90;;;5.05;;
52848;SDS011;38714;53.180;5.812;2024-03-06T06:46:44;9.18;;;4.63;;
52848;SDS011;38714;53.180;5.812;2024-03-06T06:49:10;9.95;;;4.60;;
52848;SDS011;38714;53.180;5.812;2024-03-06T06:51:35;13.73;;;5.78;;
52848;SDS011;38714;53.180;5.812;2024-03-06T06:54:01;8.38;;;5.78;;
52848;SDS011;38714;53.180;5.812;2024-03-06T06:56:29;12.82;;;4.28;;
52848;SDS011;38714;53.180;5.812;2024-03-06T06:58:54;6.70;;;4.72;;
52848;SDS011;38714;53.180;5.812;2024-03-06T07:01:21;8.57;;;4.55;;
52848;SDS011;38714;53.180;5.812;2024-03-06T07:03:47;8.13;;;5.85;;
52848;SDS011;38714;53.180;5.812;2024-03-06T07:06:13;7.03;;;4.50;;
52848;SDS011;38714;53.180;5.812;2024-03-06T07:08:38;7.38;;;5.13;;
52848;SDS011;38714;53.180;5.812;2024-03-06T07:11:04;9.93;;;5.00;;
52848;SDS011;38714;53.180;5.812;2024-03-06T07:13:30;9.63;;;5.43;;
52848;SDS011;38714;53.180;5.812;2024-03-06T07:15:55;9.98;;;5.53;;
52848;SDS011;38714;53.180;5.812;2024-03-06T07:18:21;6.47;;;5.60;;
52848;SDS011;38714;53.180;5.812;2024-03-06T07:20:47;5.70;;;3.80;;
52848;SDS011;38714;53.180;5.812;2024-03-06T07:23:12;11.43;;;5.95;;
52848;SDS011;38714;53.180;5.812;2024-03-06T07:25:38;4.93;;;3.95;;
52848;SDS011;38714;53.180;5.812;2024-03-06T07:28:04;8.65;;;5.15;;
52848;SDS011;38714;53.180;5.812;2024-03-06T07:30:30;10.95;;;4.65;;
52848;SDS011;38714;53.180;5.812;2024-03-06T07:32:56;10.93;;;5.25;;
52848;SDS011;38714;53.180;5.812;2024-03-06T07:35:22;8.52;;;5.35;;
52848;SDS011;38714;53.180;5.812;2024-03-06T07:37:48;6.95;;;5.00;;
52848;SDS011;38714;53.180;5.812;2024-03-06T07:40:14;12.75;;;5.80;;
52848;SDS011;38714;53.180;5.812;2024-03-06T07:42:39;13.50;;;5.95;;
52848;SDS011;38714;53.180;5.812;2024-03-06T07:45:05;12.75;;;4.88;;
52848;SDS011;38714;53.180;5.812;2024-03-06T07:47:34;8.75;;;3.63;;
52848;SDS011;38714;53.180;5.812;2024-03-06T07:50:00;6.57;;;4.18;;
52848;SDS011;38714;53.180;5.812;2024-03-06T07:52:25;10.02;;;4.68;;
52848;SDS011;38714;53.180;5.812;2024-03-06T07:54:51;12.52;;;5.25;;
52848;SDS011;38714;53.180;5.812;2024-03-06T07:57:16;11.27;;;6.47;;
52848;SDS011;38714;53.180;5.812;2024-03-06T07:59:43;7.10;;;4.57;;
52848;SDS011;38714;53.180;5.812;2024-03-06T08:02:08;8.45;;;5.63;;
52848;SDS011;38714;53.180;5.812;2024-03-06T08:04:34;9.75;;;4.25;;
52848;SDS011;38714;53.180;5.812;2024-03-06T08:07:01;8.02;;;4.40;;
52848;SDS011;38714;53.180;5.812;2024-03-06T08:09:26;11.13;;;5.75;;
52848;SDS011;38714;53.180;5.812;2024-03-06T08:11:53;8.10;;;4.45;;
52848;SDS011;38714;53.180;5.812;2024-03-06T08:14:19;8.60;;;4.20;;
52848;SDS011;38714;53.180;5.812;2024-03-06T08:16:45;5.82;;;4.30;;
52848;SDS011;38714;53.180;5.812;2024-03-06T08:19:11;8.75;;;5.20;;
52848;SDS011;38714;53.180;5.812;2024-03-06T08:21:36;5.30;;;4.78;;
52848;SDS011;38714;53.180;5.812;2024-03-06T08:24:02;6.22;;;5.05;;
52848;SDS011;38714;53.180;5.812;2024-03-06T08:26:28;8.05;;;5.55;;
52848;SDS011;38714;53.180;5.812;2024-03-06T08:28:54;9.57;;;5.25;;
52848;SDS011;38714;53.180;5.812;2024-03-06T08:31:19;6.20;;;4.20;;
52848;SDS011;38714;53.180;5.812;2024-03-06T08:33:46;6.45;;;5.57;;
52848;SDS011;38714;53.180;5.812;2024-03-06T08:36:12;16.10;;;6.80;;
52848;SDS011;38714;53.180;5.812;2024-03-06T08:38:39;10.25;;;4.60;;
52848;SDS011;38714;53.180;5.812;2024-03-06T08:41:05;10.10;;;5.82;;
52848;SDS011;38714;53.180;5.812;2024-03-06T08:43:31;10.65;;;5.07;;
52848;SDS011;38714;53.180;5.812;2024-03-06T08:45:57;13.00;;;6.00;;
52848;SDS011;38714;53.180;5.812;2024-03-06T08:48:23;10.88;;;5.60;;
52848;SDS011;38714;53.180;5.812;2024-03-06T08:50:49;8.70;;;5.13;;
52848;SDS011;38714;53.180;5.812;2024-03-06T08:53:16;7.18;;;4.72;;
52848;SDS011;38714;53.180;5.812;2024-03-06T08:55:41;9.75;;;5.72;;
52848;SDS011;38714;53.180;5.812;2024-03-06T08:58:07;11.20;;;5.18;;
52848;SDS011;38714;53.180;5.812;2024-03-06T09:00:34;6.88;;;5.22;;
52848;SDS011;38714;53.180;5.812;2024-03-06T09:03:00;14.32;;;4.72;;
52848;SDS011;38714;53.180;5.812;2024-03-06T09:05:25;13.23;;;7.55;;
52848;SDS011;38714;53.180;5.812;2024-03-06T09:07:51;8.65;;;5.53;;
52848;SDS011;38714;53.180;5.812;2024-03-06T09:10:17;8.88;;;4.55;;
52848;SDS011;38714;53.180;5.812;2024-03-06T09:12:44;7.78;;;4.78;;
52848;SDS011;38714;53.180;5.812;2024-03-06T09:15:10;11.05;;;5.32;;
52848;SDS011;38714;53.180;5.812;2024-03-06T09:17:37;9.07;;;5.65;;
52848;SDS011;38714;53.180;5.812;2024-03-06T09:20:05;8.68;;;4.38;;
52848;SDS011;38714;53.180;5.812;2024-03-06T09:22:37;9.38;;;5.90;;
52848;SDS011;38714;53.180;5.812;2024-03-06T09:25:04;9.15;;;5.18;;
52848;SDS011;38714;53.180;5.812;2024-03-06T09:27:30;8.30;;;5.25;;
52848;SDS011;38714;53.180;5.812;2024-03-06T09:29:56;7.50;;;4.32;;
52848;SDS011;38714;53.180;5.812;2024-03-06T09:32:22;12.02;;;6.18;;
52848;SDS011;38714;53.180;5.812;2024-03-06T09:34:48;8.48;;;6.38;;
52848;SDS011;38714;53.180;5.812;2024-03-06T09:37:14;11.50;;;5.68;;
52848;SDS011;38714;53.180;5.812;2024-03-06T09:39:40;12.43;;;6.20;;
52848;SDS011;38714;53.180;5.812;2024-03-06T09:42:06;12.15;;;6.70;;
52848;SDS011;38714;53.180;5.812;2024-03-06T09:44:32;11.15;;;6.43;;
52848;SDS011;38714;53.180;5.812;2024-03-06T09:46:59;12.20;;;5.07;;
52848;SDS011;38714;53.180;5.812;2024-03-06T09:49:28;7.90;;;6.00;;
52848;SDS011;38714;53.180;5.812;2024-03-06T09:51:55;15.25;;;7.55;;
52848;SDS011;38714;53.180;5.812;2024-03-06T09:54:23;11.70;;;6.75;;
52848;SDS011;38714;53.180;5.812;2024-03-06T09:56:51;11.27;;;5.95;;
52848;SDS011;38714;53.180;5.812;2024-03-06T09:59:17;11.75;;;7.18;;
52848;SDS011;38714;53.180;5.812;2024-03-06T10:01:50;11.25;;;6.65;;
52848;SDS011;38714;53.180;5.812;2024-03-06T10:04:20;11.90;;;6.38;;
52848;SDS011;38714;53.180;5.812;2024-03-06T10:06:47;13.10;;;6.72;;
52848;SDS011;38714;53.180;5.812;2024-03-06T10:09:16;11.00;;;6.63;;
52848;SDS011;38714;53.180;5.812;2024-03-06T10:11:42;14.55;;;6.85;;
52848;SDS011;38714;53.180;5.812;2024-03-06T10:14:08;8.73;;;6.57;;
52848;SDS011;38714;53.180;5.812;2024-03-06T10:16:35;7.43;;;5.25;;
52848;SDS011;38714;53.180;5.812;2024-03-06T10:19:17;7.72;;;6.65;;
52848;SDS011;38714;53.180;5.812;2024-03-06T10:21:43;7.50;;;6.13;;
52848;SDS011;38714;53.180;5.812;2024-03-06T10:24:13;15.20;;;6.90;;
52848;SDS011;38714;53.180;5.812;2024-03-06T10:26:52;8.68;;;6.30;;
52848;SDS011;38714;53.180;5.812;2024-03-06T10:29:25;16.13;;;6.32;;
52848;SDS011;38714;53.180;5.812;2024-03-06T10:31:52;10.80;;;6.93;;
52848;SDS011;38714;53.180;5.812;2024-03-06T10:34:25;10.93;;;6.25;;
52848;SDS011;38714;53.180;5.812;2024-03-06T10:36:55;10.23;;;6.55;;
52848;SDS011;38714;53.180;5.812;2024-03-06T10:39:22;13.23;;;6.53;;
52848;SDS011;38714;53.180;5.812;2024-03-06T10:41:51;8.93;;;6.07;;
52848;SDS011;38714;53.180;5.812;2024-03-06T10:44:20;11.40;;;6.97;;
52848;SDS011;38714;53.180;5.812;2024-03-06T10:46:47;16.15;;;8.73;;
52848;SDS011;38714;53.180;5.812;2024-03-06T10:49:22;9.93;;;6.75;;
52848;SDS011;38714;53.180;5.812;2024-03-06T10:51:49;11.88;;;6.93;;
52848;SDS011;38714;53.180;5.812;2024-03-06T10:54:16;12.77;;;8.25;;
52848;SDS011;38714;53.180;5.812;2024-03-06T10:56:41;13.05;;;7.38;;
52848;SDS011;38714;53.180;5.812;2024-03-06T10:59:11;14.32;;;6.05;;
52848;SDS011;38714;53.180;5.812;2024-03-06T11:01:40;12.93;;;6.70;;
52848;SDS011;38714;53.180;5.812;2024-03-06T11:04:08;10.60;;;7.18;;
52848;SDS011;38714;53.180;5.812;2024-03-06T11:06:36;14.70;;;6.68;;
52848;SDS011;38714;53.180;5.812;2024-03-06T11:09:03;13.57;;;9.32;;
52848;SDS011;38714;53.180;5.812;2024-03-06T11:11:29;10.52;;;6.90;;
52848;SDS011;38714;53.180;5.812;2024-03-06T11:14:05;18.83;;;7.30;;
52848;SDS011;38714;53.180;5.812;2024-03-06T11:16:33;14.77;;;7.80;;
52848;SDS011;38714;53.180;5.812;2024-03-06T11:19:23;8.18;;;6.95;;
52848;SDS011;38714;53.180;5.812;2024-03-06T11:21:49;12.45;;;6.75;;
52848;SDS011;38714;53.180;5.812;2024-03-06T11:24:15;14.98;;;8.20;;
52848;SDS011;38714;53.180;5.812;2024-03-06T11:26:48;13.02;;;7.40;;
52848;SDS011;38714;53.180;5.812;2024-03-06T11:29:17;12.20;;;6.90;;
52848;SDS011;38714;53.180;5.812;2024-03-06T11:32:03;11.23;;;8.15;;
52848;SDS011;38714;53.180;5.812;2024-03-06T11:34:32;18.17;;;6.18;;
52848;SDS011;38714;53.180;5.812;2024-03-06T11:37:08;14.23;;;8.18;;
52848;SDS011;38714;53.180;5.812;2024-03-06T11:39:36;12.18;;;7.28;;
52848;SDS011;38714;53.180;5.812;2024-03-06T11:42:04;11.75;;;7.35;;
52848;SDS011;38714;53.180;5.812;2024-03-06T11:44:33;23.48;;;8.43;;
52848;SDS011;38714;53.180;5.812;2024-03-06T11:47:00;12.57;;;7.00;;
52848;SDS011;38714;53.180;5.812;2024-03-06T11:49:33;9.75;;;6.43;;
52848;SDS011;38714;53.180;5.812;2024-03-06T11:52:06;13.18;;;8.15;;
52848;SDS011;38714;53.180;5.812;2024-03-06T11:54:33;10.98;;;7.00;;
52848;SDS011;38714;53.180;5.812;2024-03-06T11:57:00;13.52;;;8.75;;
52848;SDS011;38714;53.180;5.812;2024-03-06T11:59:36;9.15;;;6.22;;
52848;SDS011;38714;53.180;5.812;2024-03-06T12:02:05;9.55;;;5.97;;
52848;SDS011;38714;53.180;5.812;2024-03-06T12:04:32;15.35;;;8.32;;
52848;SDS011;38714;53.180;5.812;2024-03-06T12:06:59;12.25;;;7.20;;
52848;SDS011;38714;53.180;5.812;2024-03-06T12:09:30;10.48;;;6.72;;
52848;SDS011;38714;53.180;5.812;2024-03-06T12:11:55;12.30;;;7.63;;
52848;SDS011;38714;53.180;5.812;2024-03-06T12:14:25;19.25;;;8.82;;
52848;SDS011;38714;53.180;5.812;2024-03-06T12:17:00;10.95;;;6.97;;
52848;SDS011;38714;53.180;5.812;2024-03-06T12:19:33;14.25;;;5.82;;
52848;SDS011;38714;53.180;5.812;2024-03-06T12:22:05;15.05;;;8.32;;
52848;SDS011;38714;53.180;5.812;2024-03-06T12:24:31;12.50;;;7.13;;
52848;SDS011;38714;53.180;5.812;2024-03-06T12:27:01;10.52;;;8.55;;
52848;SDS011;38714;53.180;5.812;2024-03-06T12:29:28;14.77;;;6.57;;
52848;SDS011;38714;53.180;5.812;2024-03-06T12:31:58;11.80;;;7.40;;
52848;SDS011;38714;53.180;5.812;2024-03-06T12:34:24;18.25;;;9.32;;
52848;SDS011;38714;53.180;5.812;2024-03-06T12:36:50;16.48;;;8.57;;
52848;SDS011;38714;53.180;5.812;2024-03-06T12:39:16;15.68;;;7.00;;
52848;SDS011;38714;53.180;5.812;2024-03-06T12:41:49;16.60;;;9.05;;
52848;SDS011;38714;53.180;5.812;2024-03-06T12:44:15;19.00;;;10.05;;
52848;SDS011;38714;53.180;5.812;2024-03-06T12:46:41;15.50;;;7.97;;
52848;SDS011;38714;53.180;5.812;2024-03-06T12:49:07;18.00;;;7.25;;
52848;SDS011;38714;53.180;5.812;2024-03-06T12:51:32;12.30;;;8.43;;
52848;SDS011;38714;53.180;5.812;2024-03-06T12:53:58;12.95;;;8.50;;
52848;SDS011;38714;53.180;5.812;2024-03-06T12:56:24;19.83;;;8.48;;
52848;SDS011;38714;53.180;5.812;2024-03-06T12:58:52;11.13;;;7.97;;
52848;SDS011;38714;53.180;5.812;2024-03-06T13:01:18;15.60;;;7.75;;
52848;SDS011;38714;53.180;5.812;2024-03-06T13:03:45;19.50;;;9.23;;
52848;SDS011;38714;53.180;5.812;2024-03-06T13:06:10;15.82;;;8.73;;
52848;SDS011;38714;53.180;5.812;2024-03-06T13:08:36;18.45;;;8.27;;
52848;SDS011;38714;53.180;5.812;2024-03-06T13:11:02;19.83;;;8.38;;
52848;SDS011;38714;53.180;5.812;2024-03-06T13:13:28;15.40;;;8.95;;
52848;SDS011;38714;53.180;5.812;2024-03-06T13:15:55;12.15;;;7.72;;
52848;SDS011;38714;53.180;5.812;2024-03-06T13:18:21;16.15;;;8.55;;
52848;SDS011;38714;53.180;5.812;2024-03-06T13:20:47;13.48;;;9.00;;
52848;SDS011;38714;53.180;5.812;2024-03-06T13:23:12;10.65;;;8.93;;
52848;SDS011;38714;53.180;5.812;2024-03-06T13:25:38;25.85;;;11.40;;
52848;SDS011;38714;53.180;5.812;2024-03-06T13:28:04;19.80;;;9.77;;
52848;SDS011;38714;53.180;5.812;2024-03-06T13:30:30;16.95;;;9.57;;
52848;SDS011;38714;53.180;5.812;2024-03-06T13:32:56;16.38;;;8.77;;
52848;SDS011;38714;53.180;5.812;2024-03-06T13:35:21;14.52;;;8.52;;
52848;SDS011;38714;53.180;5.812;2024-03-06T13:37:47;18.73;;;8.85;;
52848;SDS011;38714;53.180;5.812;2024-03-06T13:40:14;13.95;;;8.10;;
52848;SDS011;38714;53.180;5.812;2024-03-06T13:42:40;26.42;;;8.63;;
52848;SDS011;38714;53.180;5.812;2024-03-06T13:45:06;21.60;;;9.00;;
52848;SDS011;38714;53.180;5.812;2024-03-06T13:47:39;18.52;;;9.15;;
52848;SDS011;38714;53.180;5.812;2024-03-06T13:50:12;19.40;;;9.65;;
52848;SDS011;38714;53.180;5.812;2024-03-06T13:52:40;13.23;;;7.35;;
52848;SDS011;38714;53.180;5.812;2024-03-06T13:55:06;19.33;;;11.48;;
52848;SDS011;38714;53.180;5.812;2024-03-06T13:57:33;20.75;;;10.38;;
52848;SDS011;38714;53.180;5.812;2024-03-06T14:00:00;17.35;;;8.27;;
52848;SDS011;38714;53.180;5.812;2024-03-06T14:02:26;21.17;;;10.32;;
52848;SDS011;38714;53.180;5.812;2024-03-06T14:04:52;20.30;;;9.60;;
52848;SDS011;38714;53.180;5.812;2024-03-06T14:07:17;19.27;;;10.15;;
52848;SDS011;38714;53.180;5.812;2024-03-06T14:09:43;21.80;;;11.02;;
52848;SDS011;38714;53.180;5.812;2024-03-06T14:12:09;20.02;;;12.15;;
52848;SDS011;38714;53.180;5.812;2024-03-06T14:14:34;21.10;;;9.38;;
52848;SDS011;38714;53.180;5.812;2024-03-06T14:17:00;18.70;;;9.68;;
52848;SDS011;38714;53.180;5.812;2024-03-06T14:19:26;14.68;;;8.85;;
52848;SDS011;38714;53.180;5.812;2024-03-06T14:21:52;21.33;;;10.18;;
52848;SDS011;38714;53.180;5.812;2024-03-06T14:24:18;22.42;;;12.43;;
52848;SDS011;38714;53.180;5.812;2024-03-06T14:26:45;20.48;;;10.80;;
52848;SDS011;38714;53.180;5.812;2024-03-06T14:29:12;21.48;;;11.70;;
52848;SDS011;38714;53.180;5.812;2024-03-06T14:31:39;22.48;;;11.18;;
52848;SDS011;38714;53.180;5.812;2024-03-06T14:34:04;16.88;;;11.40;;
52848;SDS011;38714;53.180;5.812;2024-03-06T14:36:30;16.77;;;9.23;;
52848;SDS011;38714;53.180;5.812;2024-03-06T14:38:56;21.38;;;10.40;;
52848;SDS011;38714;53.180;5.812;2024-03-06T14:41:21;17.20;;;12.13;;